Time;durP1;ratioP1;P1;durP2;ratioP2;P2;SDS_P1;SDS_P2;PMS_P1;PMS_P2;Temp;Humidity;BMP_temperature;BMP_pressure;BME280_temperature;BME280_humidity;BME280_pressure;Samples;Min_cycle;Max_cycle;Signal;HPM_P1;HPM_P2
2022/10/09 00:00:49;;;;;;;8.70;4.63;;;7.60;99.90;;;;;;5034290;28;20196;-75
2022/10/09 00:03:16;;;;;;;10.07;3.20;;;7.50;99.90;;;;;;5025344;28;20201;-76
2022/10/09 00:05:43;;;;;;;7.43;4.50;;;7.50;99.90;;;;;;5027430;28;20263;-73
2022/10/09 00:08:10;;;;;;;9.47;4.37;;;7.50;99.90;;;;;;5029463;28;20264;-75
2022/10/09 00:10:43;;;;;;;8.93;4.10;;;7.50;99.90;;;;;;5024616;28;20190;-72
2022/10/09 00:13:10;;;;;;;4.77;3.50;;;7.50;99.90;;;;;;5036384;28;20547;-70
2022/10/09 00:15:39;;;;;;;12.30;4.47;;;7.50;99.90;;;;;;5028766;28;20193;-73
2022/10/09 00:18:06;;;;;;;5.80;3.80;;;7.40;99.90;;;;;;5030837;28;20231;-71
2022/10/09 00:20:41;;;;;;;9.30;3.80;;;7.40;99.90;;;;;;5025821;28;20180;-71
2022/10/09 00:23:07;;;;;;;10.23;4.07;;;7.40;99.90;;;;;;5031336;28;20476;-70
2022/10/09 00:25:34;;;;;;;10.33;4.27;;;7.40;99.90;;;;;;5030889;28;20221;-73
2022/10/09 00:28:01;;;;;;;9.63;3.37;;;7.40;99.90;;;;;;5035855;28;20200;-72
2022/10/09 00:30:27;;;;;;;10.37;5.17;;;7.40;99.90;;;;;;5035942;28;20520;-71
2022/10/09 00:32:53;;;;;;;5.77;3.80;;;7.30;99.90;;;;;;5028709;28;20271;-71
2022/10/09 00:35:20;;;;;;;6.07;3.27;;;7.30;99.90;;;;;;5031564;28;20661;-71
2022/10/09 00:37:47;;;;;;;5.53;3.50;;;7.30;99.90;;;;;;5017546;28;20455;-71
2022/10/09 00:40:13;;;;;;;5.37;3.33;;;7.30;99.90;;;;;;5030811;28;20253;-71
2022/10/09 00:42:39;;;;;;;5.33;3.40;;;7.30;99.90;;;;;;5036019;28;20191;-71
2022/10/09 00:45:06;;;;;;;5.97;4.30;;;7.30;99.90;;;;;;5035743;28;20181;-71
2022/10/09 00:47:34;;;;;;;6.73;3.87;;;7.30;99.90;;;;;;5021562;28;20233;-71
2022/10/09 00:50:18;;;;;;;6.20;4.00;;;7.20;99.90;;;;;;5033687;28;20581;-72
2022/10/09 00:52:45;;;;;;;9.23;3.70;;;7.10;99.90;;;;;;5017078;28;20185;-71
2022/10/09 00:55:13;;;;;;;8.10;3.60;;;7.10;99.90;;;;;;5033702;28;20188;-73
2022/10/09 00:57:40;;;;;;;8.90;3.70;;;7.20;99.90;;;;;;5045941;28;20196;-72
2022/10/09 01:00:10;;;;;;;8.67;3.77;;;7.10;99.90;;;;;;5035520;28;20204;-71
2022/10/09 01:02:36;;;;;;;7.77;3.10;;;7.10;99.90;;;;;;5031639;28;20195;-71
2022/10/09 01:05:03;;;;;;;3.70;2.83;;;7.10;99.90;;;;;;5034063;28;20512;-72
2022/10/09 01:07:37;;;;;;;6.73;3.43;;;7.10;99.90;;;;;;5033815;28;20220;-74
2022/10/09 01:10:21;;;;;;;13.70;3.80;;;7.10;99.90;;;;;;5031399;28;20486;-70
2022/10/09 01:13:09;;;;;;;6.10;3.60;;;7.10;99.90;;;;;;5030143;28;20608;-72
2022/10/09 01:15:48;;;;;;;8.67;3.90;;;7.10;99.90;;;;;;5055162;28;20200;-72
2022/10/09 01:18:22;;;;;;;9.30;4.27;;;7.10;99.90;;;;;;5036773;28;20187;-72
2022/10/09 01:20:57;;;;;;;8.63;3.23;;;7.10;99.90;;;;;;5057401;28;20239;-72
2022/10/09 01:23:41;;;;;;;7.00;3.10;;;7.10;99.90;;;;;;5034608;28;20191;-72
2022/10/09 01:26:24;;;;;;;8.83;4.20;;;7.00;99.90;;;;;;5034536;28;20519;-71
2022/10/09 01:28:56;;;;;;;7.03;3.60;;;7.00;99.90;;;;;;5035630;28;20324;-72
2022/10/09 01:31:27;;;;;;;7.90;3.33;;;7.00;99.90;;;;;;5034983;28;20274;-73
2022/10/09 01:33:53;;;;;;;6.57;3.70;;;7.00;99.90;;;;;;5034533;28;20224;-72
2022/10/09 01:36:20;;;;;;;11.17;3.97;;;7.00;99.90;;;;;;5041885;28;20223;-71
2022/10/09 01:38:47;;;;;;;4.60;3.30;;;6.90;99.90;;;;;;5035250;28;20604;-71
2022/10/09 01:41:13;;;;;;;7.40;5.03;;;6.90;99.90;;;;;;5041842;28;20214;-71
2022/10/09 01:43:40;;;;;;;7.33;3.93;;;6.90;99.90;;;;;;5057362;28;20188;-71
2022/10/09 01:46:22;;;;;;;7.43;4.53;;;6.80;99.90;;;;;;5041778;28;20211;-76
2022/10/09 01:49:21;;;;;;;6.40;3.00;;;6.80;99.90;;;;;;5048997;28;20219;-70
2022/10/09 01:52:13;;;;;;;6.30;2.77;;;6.80;99.90;;;;;;5027846;28;20173;-70
2022/10/09 01:54:49;;;;;;;5.43;3.43;;;6.80;99.90;;;;;;5035194;28;20175;-74
2022/10/09 01:57:34;;;;;;;6.43;3.67;;;6.80;99.90;;;;;;5050130;28;20195;-72
2022/10/09 02:00:06;;;;;;;7.50;3.40;;;6.80;99.90;;;;;;5030431;28;20202;-73
2022/10/09 02:02:32;;;;;;;10.03;3.83;;;6.80;99.90;;;;;;5041123;28;20425;-72
2022/10/09 02:04:59;;;;;;;10.13;3.53;;;6.80;99.90;;;;;;5027566;28;20188;-73
2022/10/09 02:07:26;;;;;;;5.67;2.87;;;6.80;99.90;;;;;;5034609;28;20261;-74
2022/10/09 02:09:53;;;;;;;4.80;2.53;;;6.80;99.90;;;;;;5032364;28;20614;-74
2022/10/09 02:12:20;;;;;;;6.33;3.53;;;6.80;99.90;;;;;;5033784;28;20433;-71
2022/10/09 02:14:46;;;;;;;16.47;3.47;;;6.70;99.90;;;;;;5031956;28;20476;-71
2022/10/09 02:17:17;;;;;;;5.20;3.37;;;6.70;99.90;;;;;;5041550;28;20257;-72
2022/10/09 02:19:49;;;;;;;7.20;3.83;;;6.70;99.90;;;;;;5034185;28;20181;-71
2022/10/09 02:22:17;;;;;;;12.50;4.53;;;6.70;99.90;;;;;;5037790;28;20192;-71
2022/10/09 02:24:43;;;;;;;4.40;4.00;;;6.70;99.90;;;;;;5025767;28;20188;-71
2022/10/09 02:27:11;;;;;;;3.07;2.77;;;6.70;99.90;;;;;;5047117;28;20457;-73
2022/10/09 02:29:42;;;;;;;3.30;3.00;;;6.70;99.90;;;;;;5033151;28;20179;-71
2022/10/09 02:32:09;;;;;;;6.40;3.20;;;6.70;99.90;;;;;;5038813;28;20483;-74
2022/10/09 02:34:35;;;;;;;13.37;3.40;;;6.70;99.90;;;;;;5034749;28;20482;-71
2022/10/09 02:37:01;;;;;;;6.47;2.87;;;6.70;99.90;;;;;;5033987;28;20180;-72
2022/10/09 02:39:27;;;;;;;4.43;2.73;;;6.60;99.90;;;;;;5033633;28;20235;-71
2022/10/09 02:41:53;;;;;;;7.77;3.47;;;6.70;99.90;;;;;;5026883;28;20774;-72
2022/10/09 02:44:19;;;;;;;9.10;3.87;;;6.70;99.90;;;;;;5038042;28;20284;-72
2022/10/09 02:46:45;;;;;;;8.50;3.40;;;6.60;99.90;;;;;;5037807;28;20496;-72
2022/10/09 02:49:10;;;;;;;7.50;3.13;;;6.60;99.90;;;;;;5031157;28;20204;-75
2022/10/09 02:51:36;;;;;;;3.53;3.23;;;6.60;99.90;;;;;;5027810;28;20177;-71
2022/10/09 02:54:02;;;;;;;4.13;3.77;;;6.60;99.90;;;;;;5036625;28;20178;-73
2022/10/09 02:56:28;;;;;;;4.90;2.57;;;6.50;99.90;;;;;;5027169;28;20181;-72
2022/10/09 02:58:54;;;;;;;5.90;3.00;;;6.60;99.90;;;;;;5045441;28;20268;-71
2022/10/09 03:01:21;;;;;;;12.67;4.63;;;6.50;99.90;;;;;;5032271;28;20201;-70
2022/10/09 03:03:47;;;;;;;5.27;3.57;;;6.50;99.90;;;;;;5033289;28;20181;-73
2022/10/09 03:06:15;;;;;;;5.93;3.60;;;6.60;99.90;;;;;;5034321;28;21190;-72
2022/10/09 03:08:44;;;;;;;5.20;3.90;;;6.50;99.90;;;;;;5037459;28;20177;-70
2022/10/09 03:11:10;;;;;;;5.30;4.23;;;6.50;99.90;;;;;;5033746;28;20452;-72
2022/10/09 03:13:38;;;;;;;4.67;3.60;;;6.50;99.90;;;;;;5047349;28;20228;-71
2022/10/09 03:16:09;;;;;;;3.63;3.10;;;6.50;99.90;;;;;;5045834;28;20201;-71
2022/10/09 03:18:35;;;;;;;6.17;3.30;;;6.50;99.90;;;;;;5037621;28;20180;-71
2022/10/09 03:21:05;;;;;;;3.63;3.23;;;6.50;99.90;;;;;;5030990;28;20429;-71
2022/10/09 03:23:31;;;;;;;6.33;3.10;;;6.50;99.90;;;;;;5036645;28;20417;-72
2022/10/09 03:25:57;;;;;;;7.47;3.57;;;6.50;99.90;;;;;;5037195;28;20527;-71
2022/10/09 03:28:24;;;;;;;4.00;3.50;;;6.40;99.90;;;;;;5037227;28;20180;-74
2022/10/09 03:30:51;;;;;;;5.53;3.70;;;6.40;99.90;;;;;;5036980;28;21930;-71
2022/10/09 03:33:16;;;;;;;7.33;3.87;;;6.40;99.90;;;;;;5051241;28;20820;-71
2022/10/09 03:35:42;;;;;;;3.77;3.40;;;6.40;99.90;;;;;;5052221;28;20468;-75
2022/10/09 03:38:08;;;;;;;6.60;4.40;;;6.40;99.90;;;;;;5037116;28;20272;-73
2022/10/09 03:40:33;;;;;;;4.47;3.60;;;6.40;99.90;;;;;;5035549;28;20272;-72
2022/10/09 03:42:59;;;;;;;5.37;4.53;;;6.40;99.90;;;;;;5026089;28;20244;-73
2022/10/09 03:45:25;;;;;;;5.03;4.23;;;6.40;99.90;;;;;;5023683;28;20181;-73
2022/10/09 03:47:50;;;;;;;11.17;4.90;;;6.30;99.90;;;;;;5032665;28;20216;-72
2022/10/09 03:50:16;;;;;;;6.53;3.83;;;6.30;99.90;;;;;;5027295;28;20187;-73
2022/10/09 03:52:42;;;;;;;3.97;3.33;;;6.30;99.90;;;;;;5052208;28;20172;-71
2022/10/09 03:55:08;;;;;;;12.80;4.23;;;6.30;99.90;;;;;;5035203;28;20188;-72
2022/10/09 03:57:34;;;;;;;11.00;3.40;;;6.20;99.90;;;;;;5027958;28;20184;-71
2022/10/09 03:59:59;;;;;;;7.83;2.67;;;6.20;99.90;;;;;;5025317;28;20178;-73
2022/10/09 04:02:25;;;;;;;4.00;3.23;;;6.10;99.90;;;;;;5029562;28;20239;-72
2022/10/09 04:04:51;;;;;;;6.10;3.30;;;6.10;99.90;;;;;;5029296;28;20271;-73
2022/10/09 04:07:17;;;;;;;6.03;3.30;;;6.10;99.90;;;;;;5032064;28;20266;-72
2022/10/09 04:09:42;;;;;;;3.10;2.80;;;6.10;99.90;;;;;;5036129;28;20230;-70
2022/10/09 04:12:08;;;;;;;5.30;3.30;;;6.10;99.90;;;;;;5029551;28;20189;-71
2022/10/09 04:14:34;;;;;;;3.30;2.37;;;6.10;99.90;;;;;;5042251;28;20201;-71
2022/10/09 04:17:00;;;;;;;5.07;2.47;;;5.90;99.90;;;;;;5025574;28;20189;-72
2022/10/09 04:19:25;;;;;;;5.83;2.80;;;5.90;99.90;;;;;;5034792;28;20191;-72
2022/10/09 04:21:51;;;;;;;4.10;2.40;;;5.90;99.90;;;;;;5030779;28;20219;-72
2022/10/09 04:24:17;;;;;;;4.07;2.43;;;5.80;99.90;;;;;;5035975;28;20187;-73
2022/10/09 04:26:43;;;;;;;4.97;3.30;;;5.80;99.90;;;;;;5035356;28;20212;-74
2022/10/09 04:29:10;;;;;;;3.17;2.57;;;5.70;99.90;;;;;;5032669;28;20193;-72
2022/10/09 04:31:36;;;;;;;2.50;2.30;;;5.60;99.90;;;;;;5026369;28;20180;-71
2022/10/09 04:34:02;;;;;;;5.20;3.23;;;5.60;99.90;;;;;;5026548;28;20486;-71
2022/10/09 04:36:27;;;;;;;4.70;3.17;;;5.60;99.90;;;;;;5035885;28;20274;-72
2022/10/09 04:38:53;;;;;;;4.50;2.60;;;5.70;99.90;;;;;;5035018;28;20188;-70
2022/10/09 04:41:19;;;;;;;7.23;3.80;;;5.70;99.90;;;;;;5031233;28;20193;-71
2022/10/09 04:43:45;;;;;;;3.97;2.70;;;5.70;99.90;;;;;;5024562;28;20219;-70
2022/10/09 04:46:13;;;;;;;5.33;3.17;;;5.70;99.90;;;;;;5033499;28;20514;-72
2022/10/09 04:48:44;;;;;;;6.77;3.43;;;5.70;99.90;;;;;;5026153;28;20189;-72
2022/10/09 04:51:10;;;;;;;5.97;3.43;;;5.60;99.90;;;;;;5025852;28;20431;-71
2022/10/09 04:53:38;;;;;;;7.23;3.50;;;5.70;99.90;;;;;;5024538;28;20425;-75
2022/10/09 04:56:09;;;;;;;4.97;2.73;;;5.60;99.90;;;;;;5029061;28;20434;-70
2022/10/09 04:58:36;;;;;;;4.50;3.00;;;5.60;99.90;;;;;;5035570;28;20423;-78
2022/10/09 05:01:06;;;;;;;6.67;3.20;;;5.60;99.90;;;;;;5028071;28;20495;-76
2022/10/09 05:03:32;;;;;;;6.10;3.70;;;5.50;99.90;;;;;;5051258;28;20437;-77
2022/10/09 05:06:06;;;;;;;4.93;3.50;;;5.40;99.90;;;;;;5029667;28;20413;-78
2022/10/09 05:08:31;;;;;;;5.27;3.43;;;5.50;99.90;;;;;;5033624;28;20178;-77
2022/10/09 05:11:05;;;;;;;5.13;2.73;;;5.50;99.90;;;;;;5033479;28;20532;-76
2022/10/09 05:13:35;;;;;;;6.53;3.43;;;5.60;99.90;;;;;;5027441;28;20206;-72
2022/10/09 05:16:03;;;;;;;6.93;3.13;;;5.50;99.90;;;;;;5035432;28;20520;-75
2022/10/09 05:18:29;;;;;;;8.93;3.37;;;5.50;99.90;;;;;;5035506;28;20417;-72
2022/10/09 05:20:55;;;;;;;3.87;3.00;;;5.50;99.90;;;;;;5035484;28;20438;-72
2022/10/09 05:23:20;;;;;;;7.83;3.07;;;5.40;99.90;;;;;;5035250;28;20420;-73
2022/10/09 05:25:58;;;;;;;8.83;3.27;;;5.40;99.90;;;;;;5035373;28;20177;-70
2022/10/09 05:28:24;;;;;;;7.67;3.87;;;5.40;99.90;;;;;;5033492;28;20183;-76
2022/10/09 05:30:50;;;;;;;3.63;3.20;;;5.30;99.90;;;;;;5027378;28;20474;-72
2022/10/09 05:33:16;;;;;;;8.03;3.73;;;5.40;99.90;;;;;;5023514;28;20190;-73
2022/10/09 05:35:50;;;;;;;5.50;3.57;;;5.40;99.90;;;;;;5026692;28;20203;-72
2022/10/09 05:38:16;;;;;;;9.30;3.27;;;5.30;99.90;;;;;;5024524;28;20417;-73
2022/10/09 05:40:59;;;;;;;6.10;3.97;;;5.20;99.90;;;;;;5035743;28;20424;-72
2022/10/09 05:43:28;;;;;;;4.20;2.67;;;5.00;99.90;;;;;;5016587;28;20182;-72
2022/10/09 05:45:54;;;;;;;7.50;3.47;;;4.60;99.90;;;;;;5027453;28;20433;-72
2022/10/09 05:48:20;;;;;;;10.90;3.60;;;3.30;99.90;;;;;;5026364;28;20466;-73
2022/10/09 05:50:46;;;;;;;6.00;3.77;;;4.50;99.90;;;;;;5030126;28;20863;-73
2022/10/09 05:53:13;;;;;;;5.67;3.10;;;4.50;99.90;;;;;;5039122;28;20710;-73
2022/10/09 05:55:39;;;;;;;9.53;3.37;;;4.40;99.90;;;;;;5035820;28;20842;-72
2022/10/09 05:58:04;;;;;;;6.27;3.50;;;4.30;99.90;;;;;;5038884;28;20435;-76
2022/10/09 06:00:30;;;;;;;6.40;3.07;;;4.40;99.90;;;;;;5033187;28;20446;-72
2022/10/09 06:02:56;;;;;;;4.93;2.87;;;4.40;99.90;;;;;;5030068;28;20190;-72
2022/10/09 06:05:22;;;;;;;4.47;3.20;;;4.50;99.90;;;;;;5025228;28;20190;-73
2022/10/09 06:07:48;;;;;;;5.70;3.57;;;4.50;99.90;;;;;;5033133;28;20211;-75
2022/10/09 06:10:14;;;;;;;8.73;3.37;;;4.50;99.90;;;;;;5038797;28;20188;-73
2022/10/09 06:12:40;;;;;;;6.07;3.97;;;4.40;99.90;;;;;;5038518;28;20179;-76
2022/10/09 06:15:06;;;;;;;3.50;3.20;;;4.50;99.90;;;;;;5034400;28;20438;-75
2022/10/09 06:17:32;;;;;;;4.17;2.77;;;4.40;99.90;;;;;;5038327;28;20183;-76
2022/10/09 06:19:58;;;;;;;8.70;3.90;;;4.50;99.90;;;;;;5024589;28;20429;-77
2022/10/09 06:22:24;;;;;;;18.53;5.10;;;4.50;99.90;;;;;;5034269;28;20439;-74
2022/10/09 06:24:50;;;;;;;7.70;3.93;;;4.60;99.90;;;;;;5038597;28;20269;-74
2022/10/09 06:27:16;;;;;;;6.23;3.83;;;4.60;99.90;;;;;;5037886;28;20208;-71
2022/10/09 06:29:42;;;;;;;9.43;3.63;;;4.70;99.90;;;;;;5031984;28;20223;-71
2022/10/09 06:32:08;;;;;;;8.13;4.03;;;4.60;99.90;;;;;;5030870;28;20433;-72
2022/10/09 06:34:33;;;;;;;4.60;3.97;;;4.70;99.90;;;;;;5035331;28;20200;-71
2022/10/09 06:36:59;;;;;;;6.43;3.80;;;4.60;99.90;;;;;;5023877;28;20192;-74
2022/10/09 06:39:25;;;;;;;8.67;4.37;;;4.70;99.90;;;;;;5024784;28;20197;-73
2022/10/09 06:41:51;;;;;;;6.87;3.43;;;4.80;99.90;;;;;;5034907;28;20188;-71
2022/10/09 06:44:17;;;;;;;4.60;4.13;;;4.80;99.90;;;;;;5030807;28;20500;-73
2022/10/09 06:46:44;;;;;;;9.23;4.80;;;4.80;99.90;;;;;;5037926;28;20204;-71
2022/10/09 06:49:11;;;;;;;5.57;4.53;;;4.80;99.90;;;;;;5033508;28;20218;-71
2022/10/09 06:51:37;;;;;;;8.43;4.40;;;4.80;99.90;;;;;;5035301;28;20479;-70
2022/10/09 06:54:08;;;;;;;5.03;3.87;;;4.80;99.90;;;;;;5035707;28;20426;-70
2022/10/09 06:56:34;;;;;;;6.93;4.10;;;4.80;99.90;;;;;;5031141;28;20491;-70
2022/10/09 06:59:02;;;;;;;9.67;5.17;;;4.90;99.90;;;;;;5031251;28;20556;-73
2022/10/09 07:01:30;;;;;;;7.60;4.63;;;4.90;99.90;;;;;;5032776;28;20253;-71
2022/10/09 07:04:09;;;;;;;12.40;5.27;;;4.90;99.90;;;;;;5037556;28;20919;-72
2022/10/09 07:06:40;;;;;;;7.97;4.43;;;5.00;99.90;;;;;;5037111;28;20963;-70
2022/10/09 07:09:09;;;;;;;6.07;4.30;;;5.00;99.90;;;;;;5035210;28;20616;-70
2022/10/09 07:11:37;;;;;;;10.40;4.67;;;5.10;99.90;;;;;;5037234;28;20426;-70
2022/10/09 07:14:05;;;;;;;6.73;5.20;;;5.20;99.90;;;;;;5037105;28;20512;-70
2022/10/09 07:16:36;;;;;;;5.67;4.80;;;5.20;99.90;;;;;;5036428;28;20438;-73
2022/10/09 07:19:06;;;;;;;10.80;5.10;;;5.30;99.90;;;;;;5035824;28;20223;-71
2022/10/09 07:21:33;;;;;;;12.33;7.03;;;5.30;99.90;;;;;;5041398;28;20642;-70
2022/10/09 07:24:00;;;;;;;5.17;4.67;;;5.30;99.90;;;;;;5026611;28;20204;-69
2022/10/09 07:26:28;;;;;;;9.03;4.83;;;5.40;99.90;;;;;;5028228;28;20251;-71
2022/10/09 07:28:53;;;;;;;9.50;5.33;;;5.50;99.90;;;;;;5034160;28;20490;-69
2022/10/09 07:31:27;;;;;;;9.17;5.03;;;5.50;99.90;;;;;;5052488;28;20188;-68
2022/10/09 07:33:55;;;;;;;6.63;5.00;;;5.60;99.90;;;;;;5026647;28;20195;-70
2022/10/09 07:36:21;;;;;;;6.70;4.90;;;5.60;99.90;;;;;;5030027;28;20196;-70
2022/10/09 07:38:55;;;;;;;6.73;4.30;;;5.70;99.90;;;;;;5046319;28;20192;-69
2022/10/09 07:41:23;;;;;;;5.67;4.80;;;5.80;99.90;;;;;;5028968;28;20208;-71
2022/10/09 07:43:49;;;;;;;8.77;4.50;;;5.90;99.90;;;;;;5026545;28;20193;-69
2022/10/09 07:46:16;;;;;;;12.10;4.90;;;6.00;99.90;;;;;;5052412;28;20231;-76
2022/10/09 07:48:43;;;;;;;6.30;3.87;;;6.10;99.90;;;;;;5033030;28;20268;-71
2022/10/09 07:51:10;;;;;;;5.20;3.17;;;6.20;99.90;;;;;;5026557;28;20192;-72
2022/10/09 07:53:37;;;;;;;6.80;3.47;;;6.30;99.90;;;;;;5036481;28;20185;-72
2022/10/09 07:56:03;;;;;;;7.23;3.63;;;7.90;99.90;;;;;;5029447;28;20485;-69
2022/10/09 07:58:29;;;;;;;6.47;3.70;;;8.20;99.90;;;;;;5035971;28;20196;-71
2022/10/09 08:00:55;;;;;;;9.63;4.00;;;8.50;99.90;;;;;;5026654;28;20201;-70
2022/10/09 08:03:21;;;;;;;5.83;4.10;;;8.60;99.90;;;;;;5026378;28;20183;-70
2022/10/09 08:05:56;;;;;;;6.63;3.40;;;8.70;99.90;;;;;;5036168;28;20198;-70
2022/10/09 08:08:22;;;;;;;3.27;2.80;;;8.80;99.90;;;;;;5018146;28;20213;-71
2022/10/09 08:10:47;;;;;;;8.13;3.60;;;8.80;99.90;;;;;;5043103;28;20212;-71
2022/10/09 08:13:13;;;;;;;4.13;3.70;;;9.00;99.90;;;;;;5026985;28;20194;-70
2022/10/09 08:15:41;;;;;;;5.83;4.00;;;9.10;99.90;;;;;;5034299;28;20240;-70
2022/10/09 08:18:07;;;;;;;8.27;4.17;;;9.30;99.90;;;;;;5025188;28;20204;-70
2022/10/09 08:20:33;;;;;;;7.47;3.63;;;9.40;99.90;;;;;;5022783;28;20196;-70
2022/10/09 08:22:59;;;;;;;8.57;4.37;;;9.50;99.90;;;;;;5027526;28;20205;-70
2022/10/09 08:25:24;;;;;;;5.30;4.03;;;9.60;99.90;;;;;;5029237;28;20191;-69
2022/10/09 08:27:54;;;;;;;5.47;3.00;;;9.70;99.90;;;;;;5034680;28;20207;-70
2022/10/09 08:30:20;;;;;;;6.80;3.83;;;9.70;99.90;;;;;;5024190;28;20512;-69
2022/10/09 08:32:46;;;;;;;7.77;4.83;;;9.70;99.90;;;;;;5033657;28;20187;-72
2022/10/09 08:35:11;;;;;;;12.60;4.60;;;9.80;99.90;;;;;;5033077;28;20191;-70
2022/10/09 08:37:37;;;;;;;5.10;3.77;;;9.90;99.90;;;;;;5029760;28;20183;-71
2022/10/09 08:40:04;;;;;;;4.40;2.80;;;10.00;99.90;;;;;;5027929;28;20184;-73
2022/10/09 08:42:59;;;;;;;7.77;3.33;;;10.00;99.90;;;;;;5030911;28;20265;-68
2022/10/09 08:45:25;;;;;;;11.33;5.10;;;10.10;99.90;;;;;;5033341;28;20206;-71
2022/10/09 08:48:00;;;;;;;9.10;4.00;;;10.20;99.90;;;;;;5016879;28;20262;-70
2022/10/09 08:50:31;;;;;;;9.53;3.90;;;10.30;99.90;;;;;;5017484;28;20213;-71
2022/10/09 08:53:04;;;;;;;5.70;3.20;;;10.40;99.90;;;;;;5030877;28;20332;-72
2022/10/09 08:55:52;;;;;;;4.53;2.97;;;10.50;99.90;;;;;;5035611;28;20192;-69
2022/10/09 08:58:20;;;;;;;9.10;3.47;;;10.40;99.90;;;;;;5031009;28;20185;-70
2022/10/09 09:00:53;;;;;;;5.97;4.53;;;8.00;99.90;;;;;;5022501;28;20218;-70
2022/10/09 09:03:37;;;;;;;7.17;3.43;;;10.80;99.90;;;;;;5023996;28;20659;-69
2022/10/09 09:06:27;;;;;;;10.83;3.20;;;10.90;99.90;;;;;;5023156;28;20181;-72
2022/10/09 09:08:56;;;;;;;5.13;3.23;;;11.00;99.90;;;;;;5025719;28;20220;-71
2022/10/09 09:11:29;;;;;;;5.03;3.43;;;11.10;99.90;;;;;;5050440;28;20683;-70
2022/10/09 09:14:22;;;;;;;10.83;3.80;;;11.20;99.90;;;;;;5045862;28;20177;-70
2022/10/09 09:16:57;;;;;;;7.97;2.97;;;11.20;99.90;;;;;;5042519;28;20180;-69
2022/10/09 09:19:46;;;;;;;4.53;3.60;;;11.10;99.90;;;;;;5028031;28;20188;-70
2022/10/09 09:22:14;;;;;;;10.10;5.23;;;11.20;99.90;;;;;;5039339;28;20572;-70
2022/10/09 09:24:51;;;;;;;4.50;3.43;;;11.30;99.90;;;;;;5039600;28;20271;-71
2022/10/09 09:27:20;;;;;;;9.30;3.47;;;11.20;99.90;;;;;;5035163;28;20208;-71
2022/10/09 09:29:58;;;;;;;8.00;3.23;;;9.60;99.90;;;;;;5036649;28;20179;-71
2022/10/09 09:32:27;;;;;;;10.67;3.70;;;11.70;99.90;;;;;;5037392;28;20450;-71
2022/10/09 09:35:21;;;;;;;6.30;2.70;;;11.80;99.90;;;;;;5027974;28;20255;-73
2022/10/09 09:37:47;;;;;;;6.37;3.23;;;11.90;99.90;;;;;;5026710;28;20195;-72
2022/10/09 09:40:18;;;;;;;4.10;2.77;;;11.90;99.90;;;;;;5030722;28;20188;-70
2022/10/09 09:42:45;;;;;;;7.97;3.43;;;11.90;99.90;;;;;;5039139;28;20212;-73
2022/10/09 09:45:23;;;;;;;3.83;2.93;;;11.70;99.90;;;;;;5038948;28;20184;-67
2022/10/09 09:47:58;;;;;;;6.10;3.40;;;11.00;99.90;;;;;;5035246;28;20701;-70
2022/10/09 09:50:30;;;;;;;4.93;3.10;;;12.50;99.90;;;;;;5036463;28;20184;-69
2022/10/09 09:52:59;;;;;;;5.50;2.70;;;12.50;99.90;;;;;;5036666;28;20173;-69
2022/10/09 09:55:28;;;;;;;7.73;3.33;;;12.40;99.90;;;;;;5036145;28;20589;-69
2022/10/09 09:58:20;;;;;;;4.10;2.57;;;12.40;99.90;;;;;;5033762;28;20181;-69
2022/10/09 10:00:59;;;;;;;6.30;3.03;;;12.80;99.90;;;;;;5034815;28;20209;-70
2022/10/09 10:03:26;;;;;;;8.23;3.40;;;12.90;99.90;;;;;;5035805;28;20275;-71
2022/10/09 10:05:52;;;;;;;3.57;3.27;;;12.70;99.90;;;;;;5037034;28;20253;-72
2022/10/09 10:08:27;;;;;;;6.13;3.27;;;11.50;99.90;;;;;;5034267;28;20203;-70
2022/10/09 10:10:56;;;;;;;7.33;3.43;;;13.30;99.90;;;;;;5035920;28;20183;-68
2022/10/09 10:13:47;;;;;;;33.57;18.93;;;13.40;99.90;;;;;;5037820;28;20187;-71
2022/10/09 10:16:27;;;;;;;18.90;11.47;;;13.50;99.90;;;;;;5027245;28;20287;-70
2022/10/09 10:18:56;;;;;;;7.30;4.87;;;13.60;99.90;;;;;;5034639;28;20187;-70
2022/10/09 10:21:22;;;;;;;18.00;9.80;;;13.60;99.90;;;;;;5032973;28;20272;-70
2022/10/09 10:24:08;;;;;;;11.17;7.40;;;13.30;99.90;;;;;;5034344;28;20212;-73
2022/10/09 10:26:54;;;;;;;5.63;2.40;;;13.80;99.90;;;;;;5036597;28;20196;-71
2022/10/09 10:29:42;;;;;;;2.43;2.07;;;13.90;99.90;;;;;;5034791;28;20242;-72
2022/10/09 10:32:20;;;;;;;5.97;5.00;;;13.80;99.90;;;;;;5036214;28;20191;-71
2022/10/09 10:34:56;;;;;;;6.87;4.87;;;13.10;99.90;;;;;;5034571;28;20395;-71
2022/10/09 10:37:54;;;;;;;7.73;5.77;;;12.90;99.90;;;;;;5029570;28;20595;-72
2022/10/09 10:40:55;;;;;;;12.37;7.80;;;13.10;99.90;;;;;;5023058;28;20193;-71
2022/10/09 10:43:49;;;;;;;6.87;3.63;;;14.90;99.90;;;;;;4978332;28;20192;-71
2022/10/09 10:46:29;;;;;;;2.67;2.40;;;15.20;99.90;;;;;;5029904;28;20542;-72
2022/10/09 10:48:57;;;;;;;7.40;4.00;;;15.50;99.90;;;;;;5028319;28;20195;-73
2022/10/09 10:51:42;;;;;;;5.83;2.50;;;15.70;99.90;;;;;;5035296;28;20181;-72
2022/10/09 10:54:39;;;;;;;11.03;4.07;;;15.10;99.90;;;;;;5031771;28;20223;-72
2022/10/09 10:57:19;;;;;;;2.27;2.07;;;15.80;99.90;;;;;;5030868;28;20181;-72
2022/10/09 11:00:08;;;;;;;5.13;3.30;;;15.80;99.90;;;;;;5036516;28;20188;-73
2022/10/09 11:03:02;;;;;;;4.87;2.53;;;16.00;99.90;;;;;;5033686;28;20239;-71
2022/10/09 11:06:06;;;;;;;2.40;1.77;;;16.50;99.90;;;;;;5048654;28;20180;-70
2022/10/09 11:08:58;;;;;;;3.07;1.70;;;16.70;99.90;;;;;;5032858;28;20281;-70
2022/10/09 11:11:33;;;;;;;7.27;2.30;;;16.60;99.90;;;;;;5033804;28;20271;-70
2022/10/09 11:14:18;;;;;;;5.20;1.50;;;17.10;99.90;;;;;;5033287;28;20540;-71
2022/10/09 11:17:06;;;;;;;2.73;1.30;;;17.20;99.90;;;;;;5035048;28;20180;-72
2022/10/09 11:19:51;;;;;;;5.10;2.50;;;17.30;99.90;;;;;;5047084;28;20180;-71
2022/10/09 11:22:23;;;;;;;5.97;2.87;;;17.40;99.90;;;;;;5033240;28;20200;-71
2022/10/09 11:24:57;;;;;;;4.13;1.50;;;18.30;99.90;;;;;;5033314;28;20181;-70
2022/10/09 11:27:50;;;;;;;2.00;1.27;;;18.60;99.90;;;;;;5033794;28;20206;-71
2022/10/09 11:30:17;;;;;;;1.77;1.10;;;19.30;99.90;;;;;;5048848;28;20210;-71
2022/10/09 11:32:50;;;;;;;5.03;1.77;;;19.80;99.90;;;;;;5030808;28;20307;-70
2022/10/09 11:35:38;;;;;;;2.97;1.67;;;18.90;99.50;;;;;;5030459;28;20184;-71
2022/10/09 11:38:17;;;;;;;3.77;2.43;;;-40.00;71.30;;;;;;5024476;28;20181;-71
2022/10/09 11:40:43;;;;;;;1.53;1.37;;;-36.20;70.30;;;;;;5036036;28;20663;-72
2022/10/09 11:43:23;;;;;;;4.67;1.93;;;-36.90;71.00;;;;;;5036252;28;20307;-71
2022/10/09 11:46:02;;;;;;;5.97;1.90;;;-38.50;68.90;;;;;;5030673;28;20207;-71
2022/10/09 11:48:50;;;;;;;1.77;1.57;;;-38.80;64.90;;;;;;5022970;28;20200;-71
2022/10/09 11:51:40;;;;;;;4.43;1.50;;;-29.00;70.70;;;;;;5025874;28;20191;-71
2022/10/09 11:54:14;;;;;;;1.67;1.30;;;-40.00;63.40;;;;;;5026934;28;20203;-71
2022/10/09 11:56:58;;;;;;;5.53;1.87;;;-40.00;60.50;;;;;;5019740;28;20536;-70
2022/10/09 11:59:35;;;;;;;3.00;1.37;;;-40.00;59.10;;;;;;5034010;28;20188;-71
2022/10/09 12:02:21;;;;;;;7.50;1.80;;;-40.00;58.90;;;;;;5034474;28;20239;-72
2022/10/09 12:04:47;;;;;;;3.10;2.50;;;-40.00;55.60;;;;;;5029070;28;20185;-72
2022/10/09 12:07:24;;;;;;;3.00;1.70;;;-40.00;57.50;;;;;;5035980;28;20209;-73
2022/10/09 12:10:00;;;;;;;2.40;1.30;;;-40.00;59.40;;;;;;5031773;28;20231;-72
2022/10/09 12:12:26;;;;;;;3.63;1.97;;;-40.00;56.70;;;;;;5029759;28;20222;-72
2022/10/09 12:14:52;;;;;;;2.07;1.63;;;-40.00;57.00;;;;;;5031388;28;20633;-72
2022/10/09 12:17:21;;;;;;;2.80;1.50;;;-40.00;53.30;;;;;;5028137;28;20188;-70
2022/10/09 12:19:51;;;;;;;7.27;2.60;;;-40.00;53.80;;;;;;5035522;28;20539;-71
2022/10/09 12:22:26;;;;;;;2.37;1.33;;;-40.00;51.10;;;;;;5034583;28;20528;-73
2022/10/09 12:24:57;;;;;;;3.87;2.17;;;-40.00;51.50;;;;;;5035214;28;20633;-70
2022/10/09 12:27:39;;;;;;;3.97;1.43;;;-40.00;49.60;;;;;;5050425;28;20223;-73
2022/10/09 12:30:13;;;;;;;3.67;1.60;;;-40.00;51.30;;;;;;5034981;28;20457;-73
2022/10/09 12:32:48;;;;;;;2.00;1.30;;;-40.00;48.80;;;;;;5030938;28;20184;-74
2022/10/09 12:35:27;;;;;;;2.17;1.53;;;-40.00;48.10;;;;;;5029102;28;20180;-71
2022/10/09 12:37:53;;;;;;;1.67;1.57;;;-40.00;48.90;;;;;;5028483;28;20469;-72
2022/10/09 12:40:25;;;;;;;2.70;1.20;;;-40.00;48.60;;;;;;5027179;28;20189;-73
2022/10/09 12:42:52;;;;;;;3.90;1.40;;;-40.00;46.90;;;;;;5026442;28;20176;-71
2022/10/09 12:45:29;;;;;;;2.23;1.83;;;-40.00;46.00;;;;;;5033782;28;20291;-78
2022/10/09 12:47:56;;;;;;;2.07;1.23;;;-40.00;48.30;;;;;;5021514;28;20207;-77
2022/10/09 12:50:32;;;;;;;2.43;1.73;;;-40.00;48.00;;;;;;5030449;28;20184;-77
2022/10/09 12:53:00;;;;;;;4.60;1.83;;;-40.00;46.60;;;;;;5028407;28;20471;-74
2022/10/09 12:55:32;;;;;;;2.07;1.60;;;-40.00;44.20;;;;;;5027545;28;20177;-72
2022/10/09 12:58:02;;;;;;;2.97;1.47;;;-40.00;44.80;;;;;;5027087;28;20204;-71
2022/10/09 13:00:30;;;;;;;2.37;1.73;;;-40.00;44.70;;;;;;5034585;28;20188;-73
2022/10/09 13:02:56;;;;;;;1.63;1.40;;;-40.00;42.40;;;;;;5034475;28;20238;-76
2022/10/09 13:05:21;;;;;;;1.53;1.43;;;-40.00;43.60;;;;;;5024430;28;20176;-77
2022/10/09 13:07:53;;;;;;;4.87;1.33;;;-40.00;41.10;;;;;;5031331;28;20219;-79
2022/10/09 13:10:22;;;;;;;2.57;1.47;;;-40.00;41.00;;;;;;5033073;28;20177;-79